Time,TemperatureF,DewpointF,PressureIn,WindDirection,WindDirectionDegrees,WindSpeedMPH,WindSpeedGustMPH,Humidity,HourlyPrecipIn,Conditions,Clouds,dailyrainin,SoftwareType,DateUTC
2013-04-18 05:30:00,44.2,42.6,29.56,North,0,0.0,0.0,94,0.24,,,-99.99,VWS V12.07,2013-04-18 10:30:00,
2013-04-18 05:35:00,44.2,42.6,29.53,North,0,0.0,0.0,94,0.24,,,-99.99,VWS V12.07,2013-04-18 10:35:00,
2013-04-18 05:41:00,44.2,42.6,29.53,North,0,0.0,0.0,94,0.24,,,-99.99,VWS V12.07,2013-04-18 10:41:00,
2013-04-18 05:45:00,44.2,42.6,29.53,North,0,0.0,0.0,94,0.24,,,-99.99,VWS V12.07,2013-04-18 10:45:00,
2013-04-18 05:50:00,44.4,42.8,29.50,North,0,0.0,0.0,94,0.24,,,-99.99,VWS V12.07,2013-04-18 10:50:00,
2013-04-18 05:55:00,44.6,43.0,29.50,North,0,0.0,0.0,94,0.24,,,-99.99,VWS V12.07,2013-04-18 10:55:00,
2013-04-18 06:00:00,44.8,43.2,29.50,North,0,0.0,0.0,94,0.00,,,-99.99,VWS V12.07,2013-04-18 11:00:00,
2013-04-18 06:05:00,44.8,43.2,29.47,North,0,0.0,0.0,94,0.00,,,-99.99,VWS V12.07,2013-04-18 11:05:00,
2013-04-18 06:15:00,45.3,43.7,29.47,North,0,0.0,0.0,94,0.00,,,-99.99,VWS V12.07,2013-04-18 11:15:00,
2013-04-18 06:20:00,45.3,43.7,29.50,North,0,0.0,0.0,94,0.08,,,-99.99,VWS V12.07,2013-04-18 11:20:00,
2013-04-18 06:25:00,45.3,43.7,29.50,North,0,0.0,0.0,94,0.08,,,-99.99,VWS V12.07,2013-04-18 11:25:00,
2013-04-18 06:30:00,45.5,43.9,29.50,North,0,0.0,0.0,94,0.08,,,-99.99,VWS V12.07,2013-04-18 11:30:00,
2013-04-18 06:35:00,45.7,44.1,29.50,North,0,0.0,0.0,94,0.08,,,-99.99,VWS V12.07,2013-04-18 11:35:00,
2013-04-18 06:40:00,45.7,44.1,29.50,North,0,0.0,0.0,94,0.08,,,-99.99,VWS V12.07,2013-04-18 11:40:00,
2013-04-18 06:45:00,45.9,44.2,29.50,North,0,0.0,0.0,94,0.08,,,-99.99,VWS V12.07,2013-04-18 11:45:00,
2013-04-18 06:50:00,45.9,44.2,29.50,North,0,0.0,0.0,94,0.12,,,-99.99,VWS V12.07,2013-04-18 11:50:00,
2013-04-18 06:55:00,45.9,44.2,29.50,North,0,0.0,0.0,94,0.12,,,-99.99,VWS V12.07,2013-04-18 11:55:00,
2013-04-18 07:00:00,46.0,44.4,29.50,North,0,0.0,0.0,94,0.16,,,-99.99,VWS V12.07,2013-04-18 12:00:00,
2013-04-18 07:11:00,46.2,44.6,29.50,North,0,0.0,0.0,94,0.16,,,-99.99,VWS V12.07,2013-04-18 12:11:00,
2013-04-18 07:20:00,46.2,44.6,29.47,North,0,0.0,0.0,94,0.20,,,-99.99,VWS V12.07,2013-04-18 12:20:00,
2013-04-18 07:25:00,46.4,44.8,29.47,North,0,0.0,0.0,94,0.20,,,-99.99,VWS V12.07,2013-04-18 12:25:00,
2013-04-18 07:30:00,46.4,44.8,29.47,North,0,0.0,0.0,94,0.20,,,-99.99,VWS V12.07,2013-04-18 12:30:00,
2013-04-18 07:35:00,46.4,44.8,29.47,North,0,0.0,0.0,94,0.24,,,-99.99,VWS V12.07,2013-04-18 12:35:00,
2013-04-18 07:40:00,46.4,44.8,29.47,North,0,0.0,0.0,94,0.24,,,-99.99,VWS V12.07,2013-04-18 12:40:00,
2013-04-18 07:50:00,46.6,45.0,29.47,North,0,0.0,0.0,94,0.24,,,-99.99,VWS V12.07,2013-04-18 12:50:00,
2013-04-18 07:55:00,46.6,45.0,29.47,North,0,0.0,0.0,94,0.28,,,-99.99,VWS V12.07,2013-04-18 12:55:00,
2013-04-18 08:00:00,46.8,45.1,29.47,North,0,0.0,0.0,94,0.16,,,-99.99,VWS V12.07,2013-04-18 13:00:00,
2013-04-18 08:05:00,46.9,45.3,29.47,North,0,0.0,0.0,94,0.16,,,-99.99,VWS V12.07,2013-04-18 13:05:00,
2013-04-18 08:11:00,46.9,45.3,29.47,North,0,0.0,0.0,94,0.16,,,-99.99,VWS V12.07,2013-04-18 13:11:00,
2013-04-18 08:20:00,47.3,45.7,29.47,North,0,0.0,0.0,94,0.20,,,-99.99,VWS V12.07,2013-04-18 13:20:00,
2013-04-18 08:25:00,47.5,45.8,29.47,North,0,0.0,0.0,94,0.20,,,-99.99,VWS V12.07,2013-04-18 13:25:00,
2013-04-18 08:30:00,47.5,45.8,29.47,North,0,0.0,0.0,94,0.20,,,-99.99,VWS V12.07,2013-04-18 13:30:00,
2013-04-18 08:36:00,47.3,45.7,29.47,North,0,0.0,0.0,94,0.20,,,-99.99,VWS V12.07,2013-04-18 13:36:00,
2013-04-18 08:45:00,47.1,45.5,29.47,North,0,0.0,0.0,94,0.20,,,-99.99,VWS V12.07,2013-04-18 13:45:00,
2013-04-18 08:50:00,47.3,45.7,29.44,North,0,0.0,0.0,94,0.20,,,-99.99,VWS V12.07,2013-04-18 13:50:00,
2013-04-18 08:55:00,47.3,45.7,29.44,North,0,0.0,0.0,94,0.20,,,-99.99,VWS V12.07,2013-04-18 13:55:00,
2013-04-18 09:00:00,47.5,45.8,29.44,North,0,0.0,0.0,94,0.08,,,-99.99,VWS V12.07,2013-04-18 14:00:00,
2013-04-18 09:10:00,47.7,46.0,29.44,North,0,0.0,0.0,94,0.08,,,-99.99,VWS V12.07,2013-04-18 14:10:00,
2013-04-18 09:15:00,47.8,46.2,29.44,North,0,0.0,0.0,94,0.08,,,-99.99,VWS V12.07,2013-04-18 14:15:00,
2013-04-18 09:20:00,48.0,46.4,29.47,North,0,0.0,0.0,94,0.12,,,-99.99,VWS V12.07,2013-04-18 14:20:00,
2013-04-18 09:25:00,48.0,46.4,29.47,North,0,0.0,0.0,94,0.12,,,-99.99,VWS V12.07,2013-04-18 14:25:00,
2013-04-18 09:30:00,47.8,46.2,29.47,North,0,0.0,0.0,94,0.12,,,-99.99,VWS V12.07,2013-04-18 14:30:00,
2013-04-18 09:36:00,47.8,46.2,29.47,North,0,0.0,0.0,94,0.12,,,-99.99,VWS V12.07,2013-04-18 14:36:00,
2013-04-18 09:45:00,47.8,46.2,29.47,North,0,0.0,0.0,94,0.12,,,-99.99,VWS V12.07,2013-04-18 14:45:00,
2013-04-18 09:50:00,47.8,46.2,29.44,North,0,0.0,0.0,94,0.12,,,-99.99,VWS V12.07,2013-04-18 14:50:00,
2013-04-18 09:55:00,47.8,46.2,29.44,North,0,0.0,0.0,94,0.12,,,-99.99,VWS V12.07,2013-04-18 14:55:00,
2013-04-18 10:00:00,47.8,46.2,29.44,North,0,0.0,0.0,94,0.04,,,-99.99,VWS V12.07,2013-04-18 15:00:00,
2013-04-18 10:06:00,48.0,46.4,29.44,North,0,0.0,0.0,94,0.04,,,-99.99,VWS V12.07,2013-04-18 15:06:00,
2013-04-18 10:15:00,48.2,46.6,29.44,North,0,0.0,0.0,94,0.04,,,-99.99,VWS V12.07,2013-04-18 15:15:00,
2013-04-18 10:20:00,48.2,46.6,29.47,North,0,0.0,0.0,94,0.04,,,-99.99,VWS V12.07,2013-04-18 15:20:00,
2013-04-18 10:25:00,48.2,46.6,29.47,North,0,0.0,0.0,94,0.04,,,-99.99,VWS V12.07,2013-04-18 15:25:00,
2013-04-18 10:31:00,48.4,46.7,29.47,North,0,0.0,0.0,94,0.04,,,-99.99,VWS V12.07,2013-04-18 15:31:00,
2013-04-18 10:40:00,48.6,46.9,29.47,North,0,0.0,0.0,94,0.04,,,-99.99,VWS V12.07,2013-04-18 15:40:00,
2013-04-18 10:45:00,48.6,46.9,29.47,North,0,0.0,0.0,94,0.04,,,-99.99,VWS V12.07,2013-04-18 15:45:00,
2013-04-18 10:50:00,48.4,46.7,29.44,North,0,0.0,0.0,94,0.04,,,-99.99,VWS V12.07,2013-04-18 15:50:00,
2013-04-18 10:55:00,48.4,46.7,29.44,North,0,0.0,0.0,94,0.04,,,-99.99,VWS V12.07,2013-04-18 15:55:00,
2013-04-18 11:00:00,48.4,46.7,29.44,North,0,0.0,0.0,94,0.00,,,-99.99,VWS V12.07,2013-04-18 16:00:00,
2013-04-18 11:06:00,48.6,46.9,29.44,North,0,0.0,0.0,94,0.00,,,-99.99,VWS V12.07,2013-04-18 16:06:00,
2013-04-18 11:15:00,48.7,47.1,29.44,North,0,0.0,0.0,94,0.00,,,-99.99,VWS V12.07,2013-04-18 16:15:00,
2013-04-18 11:20:00,48.9,47.3,29.44,North,0,0.0,0.0,94,0.00,,,-99.99,VWS V12.07,2013-04-18 16:20:00,
2013-04-18 11:25:00,49.1,47.5,29.44,North,0,0.0,0.0,94,0.00,,,-99.99,VWS V12.07,2013-04-18 16:25:00,
2013-04-18 11:31:00,49.1,47.5,29.44,North,0,0.0,0.0,94,0.00,,,-99.99,VWS V12.07,2013-04-18 16:31:00,
2013-04-18 11:40:00,49.8,48.2,29.44,North,0,0.0,0.0,94,0.00,,,-99.99,VWS V12.07,2013-04-18 16:40:00,
2013-04-18 11:45:00,50.0,48.3,29.44,North,0,0.0,0.0,94,0.00,,,-99.99,VWS V12.07,2013-04-18 16:45:00,
2013-04-18 11:50:00,50.2,48.5,29.47,North,0,0.0,0.0,94,0.00,,,-99.99,VWS V12.07,2013-04-18 16:50:00,
2013-04-18 11:55:00,50.5,48.9,29.47,North,0,0.0,0.0,94,0.00,,,-99.99,VWS V12.07,2013-04-18 16:55:00,
2013-04-18 12:00:00,50.7,49.1,29.47,North,0,0.0,0.0,94,0.00,,,-99.99,VWS V12.07,2013-04-18 17:00:00,
2013-04-18 12:10:00,51.1,49.4,29.47,North,0,0.0,0.0,94,0.00,,,-99.99,VWS V12.07,2013-04-18 17:10:00,
2013-04-18 12:15:00,51.3,49.6,29.47,North,0,0.0,0.0,94,0.00,,,-99.99,VWS V12.07,2013-04-18 17:15:00,
2013-04-18 12:20:00,51.4,49.8,29.47,North,0,0.0,0.0,94,0.00,,,-99.99,VWS V12.07,2013-04-18 17:20:00,
2013-04-18 12:25:00,51.6,50.0,29.47,North,0,0.0,0.0,94,0.00,,,-99.99,VWS V12.07,2013-04-18 17:25:00,
2013-04-18 12:31:00,51.6,50.0,29.47,North,0,0.0,0.0,94,0.00,,,-99.99,VWS V12.07,2013-04-18 17:31:00,
2013-04-18 12:40:00,52.0,50.0,29.44,North,0,0.0,0.0,93,0.00,,,-99.99,VWS V12.07,2013-04-18 17:40:00,
2013-04-18 12:45:00,52.2,50.2,29.44,North,0,0.0,0.0,93,0.00,,,-99.99,VWS V12.07,2013-04-18 17:45:00,
2013-04-18 12:50:00,52.5,50.6,29.44,North,0,0.0,0.0,93,0.00,,,-99.99,VWS V12.07,2013-04-18 17:50:00,
2013-04-18 12:55:00,52.7,50.7,29.44,North,0,0.0,0.0,93,0.00,,,-99.99,VWS V12.07,2013-04-18 17:55:00,
2013-04-18 13:01:00,52.9,50.9,29.44,North,0,0.0,0.0,93,0.00,,,-99.99,VWS V12.07,2013-04-18 18:01:00,
2013-04-18 13:10:00,52.9,50.6,29.44,North,0,0.0,0.0,92,0.00,,,-99.99,VWS V12.07,2013-04-18 18:10:00,
2013-04-18 13:15:00,52.9,50.6,29.44,North,0,0.0,0.0,92,0.00,,,-99.99,VWS V12.07,2013-04-18 18:15:00,
2013-04-18 13:20:00,53.1,50.8,29.44,North,0,0.0,0.0,92,0.00,,,-99.99,VWS V12.07,2013-04-18 18:20:00,
2013-04-18 13:25:00,52.9,50.6,29.44,North,0,0.0,0.0,92,0.00,,,-99.99,VWS V12.07,2013-04-18 18:25:00,
2013-04-18 13:30:00,52.9,50.3,29.44,North,0,0.0,0.0,91,0.00,,,-99.99,VWS V12.07,2013-04-18 18:30:00,
2013-04-18 13:35:00,52.9,50.3,29.41,North,0,0.0,0.0,91,0.00,,,-99.99,VWS V12.07,2013-04-18 18:35:00,
2013-04-18 13:40:00,52.7,50.2,29.41,North,0,0.0,0.0,91,0.00,,,-99.99,VWS V12.07,2013-04-18 18:40:00,
2013-04-18 13:45:00,52.5,49.7,29.41,North,0,0.0,0.0,90,0.00,,,-99.99,VWS V12.07,2013-04-18 18:45:00,
2013-04-18 13:50:00,52.3,49.5,29.44,North,0,0.0,0.0,90,0.00,,,-99.99,VWS V12.07,2013-04-18 18:50:00,
2013-04-18 13:55:00,52.2,49.3,29.44,North,0,0.0,0.0,90,0.00,,,-99.99,VWS V12.07,2013-04-18 18:55:00,
2013-04-18 14:01:00,52.0,49.1,29.44,North,0,0.0,0.0,90,0.00,,,-99.99,VWS V12.07,2013-04-18 19:01:00,
2013-04-18 14:10:00,52.0,49.1,29.38,North,0,0.0,0.0,90,0.00,,,-99.99,VWS V12.07,2013-04-18 19:10:00,
2013-04-18 14:15:00,52.0,49.1,29.38,North,0,0.0,0.0,90,0.00,,,-99.99,VWS V12.07,2013-04-18 19:15:00,
2013-04-18 14:20:00,51.8,49.0,29.38,North,0,0.0,0.0,90,0.00,,,-99.99,VWS V12.07,2013-04-18 19:20:00,
2013-04-18 14:25:00,51.8,48.7,29.38,North,0,0.0,0.0,89,0.00,,,-99.99,VWS V12.07,2013-04-18 19:25:00,
2013-04-18 14:31:00,51.8,48.7,29.38,North,0,0.0,0.0,89,0.00,,,-99.99,VWS V12.07,2013-04-18 19:31:00,
2013-04-18 14:36:00,52.0,48.8,29.38,North,0,0.0,0.0,89,0.00,,,-99.99,VWS V12.07,2013-04-18 19:36:00,
2013-04-18 14:45:00,52.2,49.3,29.38,North,0,0.0,0.0,90,0.00,,,-99.99,VWS V12.07,2013-04-18 19:45:00,
2013-04-18 14:50:00,52.2,49.3,29.38,North,0,0.0,0.0,90,0.00,,,-99.99,VWS V12.07,2013-04-18 19:50:00,
2013-04-18 14:55:00,52.2,49.3,29.38,North,0,0.0,0.0,90,0.00,,,-99.99,VWS V12.07,2013-04-18 19:55:00,
2013-04-18 15:00:00,52.3,49.5,29.38,North,0,0.0,0.0,90,0.00,,,-99.99,VWS V12.07,2013-04-18 20:00:00,
2013-04-18 15:10:00,52.3,49.5,29.41,North,0,0.0,0.0,90,0.00,,,-99.99,VWS V12.07,2013-04-18 20:10:00,
2013-04-18 15:15:00,52.3,49.5,29.41,North,0,0.0,0.0,90,0.00,,,-99.99,VWS V12.07,2013-04-18 20:15:00,
2013-04-18 15:20:00,52.0,48.8,29.38,North,0,0.0,0.0,89,0.00,,,-99.99,VWS V12.07,2013-04-18 20:20:00,
2013-04-18 15:25:00,51.6,48.5,29.38,North,0,0.0,0.0,89,0.00,,,-99.99,VWS V12.07,2013-04-18 20:25:00,
2013-04-18 15:31:00,51.1,48.0,29.38,North,0,0.0,0.0,89,0.00,,,-99.99,VWS V12.07,2013-04-18 20:31:00,
2013-04-18 15:40:00,50.4,47.0,29.38,North,0,0.0,0.0,88,0.00,,,-99.99,VWS V12.07,2013-04-18 20:40:00,
2013-04-18 15:45:00,50.2,46.8,29.38,North,0,0.0,0.0,88,0.00,,,-99.99,VWS V12.07,2013-04-18 20:45:00,
2013-04-18 15:50:00,50.0,46.6,29.38,North,0,0.0,0.0,88,0.00,,,-99.99,VWS V12.07,2013-04-18 20:50:00,
2013-04-18 16:01:00,50.0,46.6,29.38,North,0,0.0,0.0,88,0.00,,,-99.99,VWS V12.07,2013-04-18 21:01:00,
2013-04-18 16:10:00,49.8,46.7,29.35,North,0,0.0,0.0,89,0.00,,,-99.99,VWS V12.07,2013-04-18 21:10:00,
2013-04-18 16:15:00,49.6,46.5,29.35,North,0,0.0,0.0,89,0.00,,,-99.99,VWS V12.07,2013-04-18 21:15:00,
2013-04-18 16:20:00,49.5,46.1,29.35,North,0,0.0,0.0,88,0.00,,,-99.99,VWS V12.07,2013-04-18 21:20:00,
2013-04-18 16:25:00,49.5,46.1,29.35,North,0,0.0,0.0,88,0.00,,,-99.99,VWS V12.07,2013-04-18 21:25:00,
2013-04-18 16:31:00,49.3,45.9,29.35,North,0,0.0,0.0,88,0.00,,,-99.99,VWS V12.07,2013-04-18 21:31:00,
2013-04-18 16:36:00,49.3,45.9,29.35,North,0,0.0,0.0,88,0.00,,,-99.99,VWS V12.07,2013-04-18 21:36:00,
2013-04-18 16:45:00,49.5,46.4,29.35,North,0,0.0,0.0,89,0.00,,,-99.99,VWS V12.07,2013-04-18 21:45:00,
2013-04-18 16:50:00,49.5,46.4,29.32,North,0,0.0,0.0,89,0.00,,,-99.99,VWS V12.07,2013-04-18 21:50:00,
2013-04-18 16:55:00,49.6,46.5,29.32,North,0,0.0,0.0,89,0.00,,,-99.99,VWS V12.07,2013-04-18 21:55:00,
2013-04-18 17:00:00,49.8,46.7,29.32,North,0,0.0,0.0,89,0.00,,,-99.99,VWS V12.07,2013-04-18 22:00:00,
2013-04-18 17:10:00,50.0,46.9,29.35,North,0,0.0,0.0,89,0.00,,,-99.99,VWS V12.07,2013-04-18 22:10:00,
2013-04-18 17:15:00,50.0,46.9,29.35,North,0,0.0,0.0,89,0.00,,,-99.99,VWS V12.07,2013-04-18 22:15:00,
2013-04-18 17:20:00,50.0,46.9,29.32,North,0,0.0,0.0,89,0.00,,,-99.99,VWS V12.07,2013-04-18 22:20:00,
2013-04-18 17:25:00,50.0,46.9,29.32,North,0,0.0,0.0,89,0.00,,,-99.99,VWS V12.07,2013-04-18 22:25:00,
2013-04-18 17:35:00,50.2,47.1,29.35,North,0,0.0,0.0,89,0.00,,,-99.99,VWS V12.07,2013-04-18 22:35:00,
2013-04-18 17:40:00,50.4,47.2,29.35,North,0,0.0,0.0,89,0.00,,,-99.99,VWS V12.07,2013-04-18 22:40:00,
2013-04-18 17:45:00,50.2,47.1,29.35,North,0,0.0,0.0,89,0.00,,,-99.99,VWS V12.07,2013-04-18 22:45:00,
2013-04-18 17:50:00,50.2,47.1,29.32,North,0,0.0,0.0,89,0.00,,,-99.99,VWS V12.07,2013-04-18 22:50:00,
2013-04-18 17:56:00,50.4,47.2,29.32,North,0,0.0,0.0,89,0.00,,,-99.99,VWS V12.07,2013-04-18 22:56:00,
2013-04-18 18:01:00,50.2,47.1,29.32,North,0,0.0,0.0,89,0.00,,,-99.99,VWS V12.07,2013-04-18 23:01:00,
2013-04-18 18:10:00,50.4,47.5,29.32,North,0,0.0,0.0,90,0.00,,,-99.99,VWS V12.07,2013-04-18 23:10:00,
2013-04-18 18:15:00,50.4,47.5,29.32,North,0,0.0,0.0,90,0.00,,,-99.99,VWS V12.07,2013-04-18 23:15:00,
2013-04-18 18:20:00,50.4,47.5,29.29,North,0,0.0,0.0,90,0.00,,,-99.99,VWS V12.07,2013-04-18 23:20:00,
2013-04-18 18:25:00,50.2,47.4,29.29,North,0,0.0,0.0,90,0.00,,,-99.99,VWS V12.07,2013-04-18 23:25:00,
2013-04-18 18:30:00,50.0,47.2,29.29,North,0,0.0,0.0,90,0.04,,,-99.99,VWS V12.07,2013-04-18 23:30:00,
2013-04-18 18:40:00,50.0,47.2,29.29,North,0,0.0,0.0,90,0.04,,,-99.99,VWS V12.07,2013-04-18 23:40:00,
2013-04-18 18:45:00,50.0,47.2,29.29,North,0,0.0,0.0,90,0.04,,,-99.99,VWS V12.07,2013-04-18 23:45:00,
2013-04-18 18:50:00,50.0,47.2,29.29,North,0,0.0,0.0,90,0.04,,,-99.99,VWS V12.07,2013-04-18 23:50:00,
2013-04-18 18:56:00,50.0,47.2,29.29,North,0,0.0,0.0,90,0.04,,,-99.99,VWS V12.07,2013-04-18 23:56:00,
2013-04-18 19:05:00,50.0,47.2,29.26,North,0,0.0,0.0,90,0.04,,,-99.99,VWS V12.07,2013-04-19 00:05:00,
2013-04-18 19:10:00,50.0,47.2,29.26,North,0,0.0,0.0,90,0.04,,,-99.99,VWS V12.07,2013-04-19 00:10:00,
2013-04-18 19:15:00,50.2,47.7,29.26,North,0,0.0,0.0,91,0.04,,,-99.99,VWS V12.07,2013-04-19 00:15:00,
2013-04-18 19:20:00,50.2,47.7,29.26,North,0,0.0,0.0,91,0.04,,,-99.99,VWS V12.07,2013-04-19 00:20:00,
2013-04-18 19:26:00,50.2,47.7,29.26,North,0,0.0,0.0,91,0.04,,,-99.99,VWS V12.07,2013-04-19 00:26:00,
2013-04-18 19:35:00,50.4,47.8,29.26,North,0,0.0,0.0,91,0.04,,,-99.99,VWS V12.07,2013-04-19 00:35:00,
2013-04-18 19:40:00,50.5,48.0,29.26,North,0,0.0,0.0,91,0.04,,,-99.99,VWS V12.07,2013-04-19 00:40:00,
2013-04-18 19:45:00,50.7,48.2,29.26,North,0,0.0,0.0,91,0.04,,,-99.99,VWS V12.07,2013-04-19 00:45:00,
2013-04-18 19:50:00,50.7,48.2,29.26,North,0,0.0,0.0,91,0.08,,,-99.99,VWS V12.07,2013-04-19 00:50:00,
2013-04-18 19:56:00,50.9,48.4,29.26,North,0,0.0,0.0,91,0.08,,,-99.99,VWS V12.07,2013-04-19 00:56:00,
2013-04-18 20:05:00,51.3,48.7,29.26,North,0,0.0,0.0,91,0.04,,,-99.99,VWS V12.07,2013-04-19 01:05:00,
2013-04-18 20:10:00,52.0,49.7,29.26,North,0,0.0,0.0,92,0.04,,,-99.99,VWS V12.07,2013-04-19 01:10:00,
2013-04-18 20:15:00,52.9,50.6,29.26,North,0,0.0,0.0,92,0.04,,,-99.99,VWS V12.07,2013-04-19 01:15:00,
2013-04-18 20:20:00,51.6,49.4,29.29,North,0,0.0,0.0,92,0.04,,,-99.99,VWS V12.07,2013-04-19 01:20:00,
2013-04-18 20:26:00,50.5,47.7,29.29,North,0,0.0,0.0,90,0.04,,,-99.99,VWS V12.07,2013-04-19 01:26:00,
2013-04-18 20:35:00,49.6,46.8,29.32,North,0,0.0,0.0,90,0.04,,,-99.99,VWS V12.07,2013-04-19 01:35:00,
2013-04-18 20:40:00,49.1,46.3,29.32,North,0,0.0,0.0,90,0.04,,,-99.99,VWS V12.07,2013-04-19 01:40:00,
2013-04-18 20:45:00,48.7,45.9,29.32,North,0,0.0,0.0,90,0.04,,,-99.99,VWS V12.07,2013-04-19 01:45:00,
2013-04-18 20:50:00,48.2,45.1,29.35,North,0,0.0,0.0,89,0.04,,,-99.99,VWS V12.07,2013-04-19 01:50:00,
2013-04-18 20:56:00,47.7,44.3,29.35,North,0,0.0,0.0,88,0.04,,,-99.99,VWS V12.07,2013-04-19 01:56:00,
2013-04-18 21:05:00,47.1,43.2,29.32,North,0,0.0,0.0,86,0.00,,,-99.99,VWS V12.07,2013-04-19 02:05:00,
2013-04-18 21:10:00,46.8,42.5,29.32,North,0,0.0,0.0,85,0.00,,,-99.99,VWS V12.07,2013-04-19 02:10:00,
2013-04-18 21:15:00,46.4,41.8,29.32,North,0,0.0,0.0,84,0.00,,,-99.99,VWS V12.07,2013-04-19 02:15:00,
2013-04-18 21:21:00,46.2,41.7,29.32,North,0,0.0,0.0,84,0.00,,,-99.99,VWS V12.07,2013-04-19 02:21:00,
2013-04-18 21:30:00,45.5,40.0,29.32,North,0,0.0,0.0,81,0.00,,,-99.99,VWS V12.07,2013-04-19 02:30:00,
2013-04-18 21:35:00,45.3,39.5,29.32,North,0,0.0,0.0,80,0.00,,,-99.99,VWS V12.07,2013-04-19 02:35:00,
2013-04-18 21:40:00,45.1,39.3,29.32,North,0,0.0,0.0,80,0.00,,,-99.99,VWS V12.07,2013-04-19 02:40:00,
2013-04-18 21:45:00,45.0,38.8,29.32,North,0,0.0,0.0,79,0.00,,,-99.99,VWS V12.07,2013-04-19 02:45:00,
2013-04-18 21:50:00,44.8,38.3,29.32,North,0,0.0,0.0,78,0.00,,,-99.99,VWS V12.07,2013-04-19 02:50:00,
2013-04-18 22:00:00,44.4,37.7,29.32,North,0,0.0,0.0,77,0.00,,,-99.99,VWS V12.07,2013-04-19 03:00:00,
2013-04-18 22:10:00,44.1,37.0,29.32,North,0,0.0,0.0,76,0.00,,,-99.99,VWS V12.07,2013-04-19 03:10:00,
2013-04-18 22:15:00,43.9,36.5,29.32,North,0,0.0,0.0,75,0.00,,,-99.99,VWS V12.07,2013-04-19 03:15:00,
2013-04-18 22:21:00,43.7,36.0,29.32,North,0,0.0,0.0,74,0.00,,,-99.99,VWS V12.07,2013-04-19 03:21:00,
2013-04-18 22:30:00,43.3,35.3,29.32,North,0,0.0,0.0,73,0.00,,,-99.99,VWS V12.07,2013-04-19 03:30:00,
2013-04-18 22:35:00,43.0,34.6,29.32,North,0,0.0,0.0,72,0.00,,,-99.99,VWS V12.07,2013-04-19 03:35:00,
2013-04-18 22:40:00,42.8,34.4,29.32,North,0,0.0,0.0,72,0.00,,,-99.99,VWS V12.07,2013-04-19 03:40:00,
2013-04-18 22:46:00,42.4,34.1,29.32,North,0,0.0,0.0,72,0.00,,,-99.99,VWS V12.07,2013-04-19 03:46:00,
2013-04-18 22:51:00,42.3,33.9,29.32,North,0,0.0,0.0,72,0.00,,,-99.99,VWS V12.07,2013-04-19 03:51:00,
2013-04-18 23:00:00,41.9,33.5,29.32,North,0,0.0,0.0,72,0.00,,,-99.99,VWS V12.07,2013-04-19 04:00:00,
2013-04-18 23:05:00,41.7,33.0,29.32,North,0,0.0,0.0,71,0.00,,,-99.99,VWS V12.07,2013-04-19 04:05:00,
2013-04-18 23:10:00,41.5,32.5,29.32,North,0,0.0,0.0,70,0.00,,,-99.99,VWS V12.07,2013-04-19 04:10:00,
2013-04-18 23:15:00,41.2,31.1,29.32,North,0,0.0,0.0,67,0.00,,,-99.99,VWS V12.07,2013-04-19 04:15:00,
2013-04-18 23:20:00,41.0,29.8,29.32,North,0,0.0,0.0,64,0.00,,,-99.99,VWS V12.07,2013-04-19 04:20:00,
2013-04-18 23:26:00,41.0,29.0,29.32,North,0,0.0,0.0,62,0.00,,,-99.99,VWS V12.07,2013-04-19 04:26:00,
2013-04-18 23:35:00,40.6,28.3,29.32,North,0,0.0,0.0,61,0.00,,,-99.99,VWS V12.07,2013-04-19 04:35:00,
2013-04-18 23:40:00,40.6,27.9,29.32,North,0,0.0,0.0,60,0.00,,,-99.99,VWS V12.07,2013-04-19 04:40:00,
2013-04-18 23:45:00,40.5,26.9,29.32,North,0,0.0,0.0,58,0.00,,,-99.99,VWS V12.07,2013-04-19 04:45:00,
2013-04-18 23:50:00,40.5,26.9,29.32,North,0,0.0,0.0,58,0.00,,,-99.99,VWS V12.07,2013-04-19 04:50:00,
2013-04-18 23:55:00,40.3,26.7,29.32,North,0,0.0,0.0,58,0.00,,,-99.99,VWS V12.07,2013-04-19 04:55:00,